sensor_id;sensor_type;location;lat;lon;timestamp;P1;durP1;ratioP1;P2;durP2;ratioP2
37785;SDS011;23625;48.784;9.336;2023-08-01T00:00:26;7.55;;;3.88;;
37785;SDS011;23625;48.784;9.336;2023-08-01T00:02:52;7.82;;;3.58;;
37785;SDS011;23625;48.784;9.336;2023-08-01T00:05:19;8.25;;;4.05;;
37785;SDS011;23625;48.784;9.336;2023-08-01T00:07:44;7.18;;;3.92;;
37785;SDS011;23625;48.784;9.336;2023-08-01T00:10:10;7.18;;;3.45;;
37785;SDS011;23625;48.784;9.336;2023-08-01T00:12:36;10.70;;;3.90;;
37785;SDS011;23625;48.784;9.336;2023-08-01T00:15:01;9.35;;;3.78;;
37785;SDS011;23625;48.784;9.336;2023-08-01T00:17:28;8.20;;;4.28;;
37785;SDS011;23625;48.784;9.336;2023-08-01T00:19:53;6.22;;;4.15;;
37785;SDS011;23625;48.784;9.336;2023-08-01T00:22:20;10.68;;;3.78;;
37785;SDS011;23625;48.784;9.336;2023-08-01T00:24:45;11.02;;;3.80;;
37785;SDS011;23625;48.784;9.336;2023-08-01T00:27:12;8.93;;;4.50;;
37785;SDS011;23625;48.784;9.336;2023-08-01T00:29:38;9.25;;;4.22;;
37785;SDS011;23625;48.784;9.336;2023-08-01T00:32:04;8.30;;;3.83;;
37785;SDS011;23625;48.784;9.336;2023-08-01T00:34:30;11.50;;;4.60;;
37785;SDS011;23625;48.784;9.336;2023-08-01T00:36:56;8.45;;;3.72;;
37785;SDS011;23625;48.784;9.336;2023-08-01T00:39:22;9.30;;;4.05;;
37785;SDS011;23625;48.784;9.336;2023-08-01T00:41:48;8.43;;;3.63;;
37785;SDS011;23625;48.784;9.336;2023-08-01T00:44:14;7.57;;;4.07;;
37785;SDS011;23625;48.784;9.336;2023-08-01T00:46:39;7.22;;;4.00;;
37785;SDS011;23625;48.784;9.336;2023-08-01T00:49:05;9.93;;;4.20;;
37785;SDS011;23625;48.784;9.336;2023-08-01T00:51:31;6.80;;;4.28;;
37785;SDS011;23625;48.784;9.336;2023-08-01T00:54:00;9.15;;;4.10;;
37785;SDS011;23625;48.784;9.336;2023-08-01T00:56:26;7.10;;;3.88;;
37785;SDS011;23625;48.784;9.336;2023-08-01T00:58:51;10.35;;;4.32;;
37785;SDS011;23625;48.784;9.336;2023-08-01T01:01:17;13.40;;;4.90;;
37785;SDS011;23625;48.784;9.336;2023-08-01T01:03:43;10.10;;;4.20;;
37785;SDS011;23625;48.784;9.336;2023-08-01T01:08:43;6.28;;;4.20;;
37785;SDS011;23625;48.784;9.336;2023-08-01T01:11:09;9.10;;;4.25;;
37785;SDS011;23625;48.784;9.336;2023-08-01T01:13:34;9.95;;;4.30;;
37785;SDS011;23625;48.784;9.336;2023-08-01T01:16:00;9.55;;;4.20;;
37785;SDS011;23625;48.784;9.336;2023-08-01T01:18:26;8.77;;;4.38;;
37785;SDS011;23625;48.784;9.336;2023-08-01T01:20:51;12.05;;;4.50;;
37785;SDS011;23625;48.784;9.336;2023-08-01T01:23:17;10.35;;;4.72;;
37785;SDS011;23625;48.784;9.336;2023-08-01T01:25:44;11.20;;;4.55;;
37785;SDS011;23625;48.784;9.336;2023-08-01T01:28:11;8.75;;;3.90;;
37785;SDS011;23625;48.784;9.336;2023-08-01T01:30:37;14.40;;;4.72;;
37785;SDS011;23625;48.784;9.336;2023-08-01T01:33:03;11.32;;;4.70;;
37785;SDS011;23625;48.784;9.336;2023-08-01T01:35:30;10.75;;;4.20;;
37785;SDS011;23625;48.784;9.336;2023-08-01T01:37:58;9.73;;;3.88;;
37785;SDS011;23625;48.784;9.336;2023-08-01T01:40:26;11.77;;;4.78;;
37785;SDS011;23625;48.784;9.336;2023-08-01T01:42:52;12.50;;;4.32;;
37785;SDS011;23625;48.784;9.336;2023-08-01T01:45:17;9.18;;;3.97;;
37785;SDS011;23625;48.784;9.336;2023-08-01T01:47:43;10.05;;;4.18;;
37785;SDS011;23625;48.784;9.336;2023-08-01T01:50:09;7.30;;;3.88;;
37785;SDS011;23625;48.784;9.336;2023-08-01T01:52:34;10.18;;;4.28;;
37785;SDS011;23625;48.784;9.336;2023-08-01T01:55:00;10.68;;;4.10;;
37785;SDS011;23625;48.784;9.336;2023-08-01T01:57:26;7.65;;;4.22;;
37785;SDS011;23625;48.784;9.336;2023-08-01T01:59:52;11.98;;;4.47;;
37785;SDS011;23625;48.784;9.336;2023-08-01T02:02:17;14.15;;;4.47;;
37785;SDS011;23625;48.784;9.336;2023-08-01T02:04:45;6.65;;;3.78;;
37785;SDS011;23625;48.784;9.336;2023-08-01T02:07:12;6.47;;;3.72;;
37785;SDS011;23625;48.784;9.336;2023-08-01T02:09:39;11.75;;;4.80;;
37785;SDS011;23625;48.784;9.336;2023-08-01T02:12:05;8.43;;;4.05;;
37785;SDS011;23625;48.784;9.336;2023-08-01T02:14:32;7.80;;;4.07;;
37785;SDS011;23625;48.784;9.336;2023-08-01T02:16:58;8.93;;;4.38;;
37785;SDS011;23625;48.784;9.336;2023-08-01T02:19:23;9.65;;;4.15;;
37785;SDS011;23625;48.784;9.336;2023-08-01T02:21:49;8.13;;;4.63;;
37785;SDS011;23625;48.784;9.336;2023-08-01T02:24:14;10.88;;;4.03;;
37785;SDS011;23625;48.784;9.336;2023-08-01T02:26:40;9.55;;;4.55;;
37785;SDS011;23625;48.784;9.336;2023-08-01T02:29:06;9.15;;;3.88;;
37785;SDS011;23625;48.784;9.336;2023-08-01T02:31:31;10.30;;;4.35;;
37785;SDS011;23625;48.784;9.336;2023-08-01T02:33:57;8.07;;;4.18;;
37785;SDS011;23625;48.784;9.336;2023-08-01T02:36:22;8.35;;;4.35;;
37785;SDS011;23625;48.784;9.336;2023-08-01T02:38:48;9.07;;;4.15;;
37785;SDS011;23625;48.784;9.336;2023-08-01T02:41:13;10.07;;;3.97;;
37785;SDS011;23625;48.784;9.336;2023-08-01T02:43:39;11.13;;;4.72;;
37785;SDS011;23625;48.784;9.336;2023-08-01T02:46:05;13.82;;;4.28;;
37785;SDS011;23625;48.784;9.336;2023-08-01T02:48:30;9.55;;;4.97;;
37785;SDS011;23625;48.784;9.336;2023-08-01T02:50:57;11.55;;;5.18;;
37785;SDS011;23625;48.784;9.336;2023-08-01T02:53:23;9.30;;;5.07;;
37785;SDS011;23625;48.784;9.336;2023-08-01T02:55:49;9.32;;;4.28;;
37785;SDS011;23625;48.784;9.336;2023-08-01T02:58:15;15.75;;;4.65;;
37785;SDS011;23625;48.784;9.336;2023-08-01T03:00:40;8.27;;;3.55;;
37785;SDS011;23625;48.784;9.336;2023-08-01T03:03:06;14.10;;;4.10;;
37785;SDS011;23625;48.784;9.336;2023-08-01T03:05:32;9.20;;;4.43;;
37785;SDS011;23625;48.784;9.336;2023-08-01T03:08:00;10.00;;;4.60;;
37785;SDS011;23625;48.784;9.336;2023-08-01T03:10:25;6.32;;;4.25;;
37785;SDS011;23625;48.784;9.336;2023-08-01T03:12:51;8.25;;;4.20;;
37785;SDS011;23625;48.784;9.336;2023-08-01T03:15:16;8.18;;;4.47;;
37785;SDS011;23625;48.784;9.336;2023-08-01T03:17:42;9.43;;;4.50;;
37785;SDS011;23625;48.784;9.336;2023-08-01T03:20:08;13.40;;;4.65;;
37785;SDS011;23625;48.784;9.336;2023-08-01T03:22:36;14.57;;;4.60;;
37785;SDS011;23625;48.784;9.336;2023-08-01T03:25:05;9.93;;;4.45;;
37785;SDS011;23625;48.784;9.336;2023-08-01T03:27:34;7.80;;;4.20;;
37785;SDS011;23625;48.784;9.336;2023-08-01T03:30:00;13.07;;;4.55;;
37785;SDS011;23625;48.784;9.336;2023-08-01T03:32:27;8.43;;;4.45;;
37785;SDS011;23625;48.784;9.336;2023-08-01T03:34:52;9.07;;;4.78;;
37785;SDS011;23625;48.784;9.336;2023-08-01T03:37:18;13.27;;;4.32;;
37785;SDS011;23625;48.784;9.336;2023-08-01T03:39:44;7.88;;;3.92;;
37785;SDS011;23625;48.784;9.336;2023-08-01T03:42:10;10.00;;;3.92;;
37785;SDS011;23625;48.784;9.336;2023-08-01T03:44:35;8.05;;;3.80;;
37785;SDS011;23625;48.784;9.336;2023-08-01T03:47:01;10.00;;;4.25;;
37785;SDS011;23625;48.784;9.336;2023-08-01T03:49:27;9.02;;;3.90;;
37785;SDS011;23625;48.784;9.336;2023-08-01T03:51:52;14.38;;;5.70;;
37785;SDS011;23625;48.784;9.336;2023-08-01T03:54:18;11.55;;;4.03;;
37785;SDS011;23625;48.784;9.336;2023-08-01T03:56:43;14.23;;;5.75;;
37785;SDS011;23625;48.784;9.336;2023-08-01T03:59:11;7.20;;;4.28;;
37785;SDS011;23625;48.784;9.336;2023-08-01T04:01:38;10.98;;;4.03;;
37785;SDS011;23625;48.784;9.336;2023-08-01T04:04:03;8.98;;;4.43;;
37785;SDS011;23625;48.784;9.336;2023-08-01T04:06:29;8.75;;;4.20;;
37785;SDS011;23625;48.784;9.336;2023-08-01T04:08:55;6.20;;;3.78;;
37785;SDS011;23625;48.784;9.336;2023-08-01T04:11:21;8.80;;;3.60;;
37785;SDS011;23625;48.784;9.336;2023-08-01T04:13:47;7.05;;;3.50;;
37785;SDS011;23625;48.784;9.336;2023-08-01T04:16:13;9.73;;;4.35;;
37785;SDS011;23625;48.784;9.336;2023-08-01T04:18:38;9.18;;;3.95;;
37785;SDS011;23625;48.784;9.336;2023-08-01T04:21:04;10.98;;;4.35;;
37785;SDS011;23625;48.784;9.336;2023-08-01T04:23:31;8.57;;;3.72;;
37785;SDS011;23625;48.784;9.336;2023-08-01T04:25:57;5.50;;;2.95;;
37785;SDS011;23625;48.784;9.336;2023-08-01T04:28:24;12.85;;;4.00;;
37785;SDS011;23625;48.784;9.336;2023-08-01T04:30:50;10.23;;;3.88;;
37785;SDS011;23625;48.784;9.336;2023-08-01T04:33:16;8.73;;;3.33;;
37785;SDS011;23625;48.784;9.336;2023-08-01T04:35:42;9.73;;;3.53;;
37785;SDS011;23625;48.784;9.336;2023-08-01T04:38:07;7.55;;;4.05;;
37785;SDS011;23625;48.784;9.336;2023-08-01T04:40:33;7.63;;;3.22;;
37785;SDS011;23625;48.784;9.336;2023-08-01T04:43:01;10.77;;;3.33;;
37785;SDS011;23625;48.784;9.336;2023-08-01T04:45:27;6.75;;;3.58;;
37785;SDS011;23625;48.784;9.336;2023-08-01T04:47:52;11.13;;;4.47;;
37785;SDS011;23625;48.784;9.336;2023-08-01T04:50:18;7.28;;;3.55;;
37785;SDS011;23625;48.784;9.336;2023-08-01T04:52:44;11.70;;;3.97;;
37785;SDS011;23625;48.784;9.336;2023-08-01T04:55:09;9.45;;;3.67;;
37785;SDS011;23625;48.784;9.336;2023-08-01T04:57:35;10.88;;;3.90;;
37785;SDS011;23625;48.784;9.336;2023-08-01T05:00:01;13.77;;;4.22;;
37785;SDS011;23625;48.784;9.336;2023-08-01T05:02:27;7.93;;;3.95;;
37785;SDS011;23625;48.784;9.336;2023-08-01T05:04:52;8.25;;;3.90;;
37785;SDS011;23625;48.784;9.336;2023-08-01T05:07:18;11.55;;;3.47;;
37785;SDS011;23625;48.784;9.336;2023-08-01T05:09:43;11.10;;;3.58;;
37785;SDS011;23625;48.784;9.336;2023-08-01T05:12:09;10.90;;;3.38;;
37785;SDS011;23625;48.784;9.336;2023-08-01T05:14:34;6.30;;;3.30;;
37785;SDS011;23625;48.784;9.336;2023-08-01T05:17:00;9.23;;;3.67;;
37785;SDS011;23625;48.784;9.336;2023-08-01T05:19:25;6.10;;;3.20;;
37785;SDS011;23625;48.784;9.336;2023-08-01T05:21:51;7.30;;;3.20;;
37785;SDS011;23625;48.784;9.336;2023-08-01T05:24:17;7.78;;;3.75;;
37785;SDS011;23625;48.784;9.336;2023-08-01T05:26:45;5.30;;;3.28;;
37785;SDS011;23625;48.784;9.336;2023-08-01T05:29:10;6.90;;;3.50;;
37785;SDS011;23625;48.784;9.336;2023-08-01T05:31:36;9.05;;;3.60;;
37785;SDS011;23625;48.784;9.336;2023-08-01T05:34:01;5.78;;;3.22;;
37785;SDS011;23625;48.784;9.336;2023-08-01T05:36:27;8.55;;;4.40;;
37785;SDS011;23625;48.784;9.336;2023-08-01T05:38:53;10.20;;;3.67;;
37785;SDS011;23625;48.784;9.336;2023-08-01T05:41:18;5.95;;;3.20;;
37785;SDS011;23625;48.784;9.336;2023-08-01T05:43:44;11.13;;;4.30;;
37785;SDS011;23625;48.784;9.336;2023-08-01T05:46:11;6.97;;;3.10;;
37785;SDS011;23625;48.784;9.336;2023-08-01T05:48:37;10.68;;;3.70;;
37785;SDS011;23625;48.784;9.336;2023-08-01T05:51:03;6.20;;;3.65;;
37785;SDS011;23625;48.784;9.336;2023-08-01T05:53:28;12.52;;;3.72;;
37785;SDS011;23625;48.784;9.336;2023-08-01T05:55:55;12.40;;;4.32;;
37785;SDS011;23625;48.784;9.336;2023-08-01T05:58:21;6.15;;;3.78;;
37785;SDS011;23625;48.784;9.336;2023-08-01T06:00:46;8.68;;;3.97;;
37785;SDS011;23625;48.784;9.336;2023-08-01T06:03:12;11.75;;;4.07;;
37785;SDS011;23625;48.784;9.336;2023-08-01T06:05:38;11.40;;;4.68;;
37785;SDS011;23625;48.784;9.336;2023-08-01T06:08:05;8.50;;;3.42;;
37785;SDS011;23625;48.784;9.336;2023-08-01T06:10:31;6.95;;;3.95;;
37785;SDS011;23625;48.784;9.336;2023-08-01T06:12:57;11.90;;;3.55;;
37785;SDS011;23625;48.784;9.336;2023-08-01T06:15:23;16.98;;;4.57;;
37785;SDS011;23625;48.784;9.336;2023-08-01T06:17:48;10.10;;;4.55;;
37785;SDS011;23625;48.784;9.336;2023-08-01T06:20:14;12.43;;;5.38;;
37785;SDS011;23625;48.784;9.336;2023-08-01T06:22:39;8.02;;;3.78;;
37785;SDS011;23625;48.784;9.336;2023-08-01T06:25:06;12.05;;;4.70;;
37785;SDS011;23625;48.784;9.336;2023-08-01T06:27:31;29.85;;;15.38;;
37785;SDS011;23625;48.784;9.336;2023-08-01T06:29:57;16.75;;;4.47;;
37785;SDS011;23625;48.784;9.336;2023-08-01T06:32:23;10.18;;;4.35;;
37785;SDS011;23625;48.784;9.336;2023-08-01T06:34:48;8.95;;;4.22;;
37785;SDS011;23625;48.784;9.336;2023-08-01T06:37:14;8.57;;;4.28;;
37785;SDS011;23625;48.784;9.336;2023-08-01T06:39:39;8.05;;;4.72;;
37785;SDS011;23625;48.784;9.336;2023-08-01T06:42:05;10.35;;;4.50;;
37785;SDS011;23625;48.784;9.336;2023-08-01T06:44:31;8.70;;;4.13;;
37785;SDS011;23625;48.784;9.336;2023-08-01T06:46:56;12.60;;;4.18;;
37785;SDS011;23625;48.784;9.336;2023-08-01T06:49:22;9.32;;;4.40;;
37785;SDS011;23625;48.784;9.336;2023-08-01T06:51:47;11.50;;;4.70;;
37785;SDS011;23625;48.784;9.336;2023-08-01T06:54:13;12.63;;;4.93;;
37785;SDS011;23625;48.784;9.336;2023-08-01T06:56:38;11.82;;;5.22;;
37785;SDS011;23625;48.784;9.336;2023-08-01T06:59:04;11.13;;;4.68;;
37785;SDS011;23625;48.784;9.336;2023-08-01T07:01:30;8.98;;;4.78;;
37785;SDS011;23625;48.784;9.336;2023-08-01T07:03:57;9.25;;;4.40;;
37785;SDS011;23625;48.784;9.336;2023-08-01T07:06:23;14.45;;;4.90;;
37785;SDS011;23625;48.784;9.336;2023-08-01T07:08:49;10.00;;;4.57;;
37785;SDS011;23625;48.784;9.336;2023-08-01T07:11:15;14.40;;;4.40;;
37785;SDS011;23625;48.784;9.336;2023-08-01T07:13:41;8.35;;;4.30;;
37785;SDS011;23625;48.784;9.336;2023-08-01T07:16:06;9.80;;;5.63;;
37785;SDS011;23625;48.784;9.336;2023-08-01T07:18:32;10.50;;;5.15;;
37785;SDS011;23625;48.784;9.336;2023-08-01T07:21:04;12.50;;;5.32;;
37785;SDS011;23625;48.784;9.336;2023-08-01T07:23:30;11.43;;;5.18;;
37785;SDS011;23625;48.784;9.336;2023-08-01T07:25:57;10.30;;;4.68;;
37785;SDS011;23625;48.784;9.336;2023-08-01T07:28:23;12.18;;;5.95;;
37785;SDS011;23625;48.784;9.336;2023-08-01T07:30:48;12.73;;;5.72;;
37785;SDS011;23625;48.784;9.336;2023-08-01T07:33:26;10.77;;;5.45;;
37785;SDS011;23625;48.784;9.336;2023-08-01T07:35:52;11.57;;;5.30;;
37785;SDS011;23625;48.784;9.336;2023-08-01T07:38:18;13.23;;;5.82;;
37785;SDS011;23625;48.784;9.336;2023-08-01T07:40:43;12.52;;;4.90;;
37785;SDS011;23625;48.784;9.336;2023-08-01T07:43:09;8.57;;;5.18;;
37785;SDS011;23625;48.784;9.336;2023-08-01T07:45:34;10.88;;;5.72;;
37785;SDS011;23625;48.784;9.336;2023-08-01T07:48:00;23.52;;;5.20;;
37785;SDS011;23625;48.784;9.336;2023-08-01T07:50:26;10.18;;;5.65;;
37785;SDS011;23625;48.784;9.336;2023-08-01T07:52:52;10.98;;;5.75;;
37785;SDS011;23625;48.784;9.336;2023-08-01T07:55:17;13.15;;;6.53;;
37785;SDS011;23625;48.784;9.336;2023-08-01T07:57:43;9.10;;;4.82;;
37785;SDS011;23625;48.784;9.336;2023-08-01T08:00:09;11.27;;;5.30;;
37785;SDS011;23625;48.784;9.336;2023-08-01T08:02:36;16.33;;;5.68;;
37785;SDS011;23625;48.784;9.336;2023-08-01T08:05:01;9.20;;;4.95;;
37785;SDS011;23625;48.784;9.336;2023-08-01T08:07:27;9.48;;;4.82;;
37785;SDS011;23625;48.784;9.336;2023-08-01T08:09:52;11.50;;;5.28;;
37785;SDS011;23625;48.784;9.336;2023-08-01T08:12:20;9.93;;;4.75;;
37785;SDS011;23625;48.784;9.336;2023-08-01T08:14:46;9.93;;;4.45;;
37785;SDS011;23625;48.784;9.336;2023-08-01T08:17:12;8.80;;;4.35;;
37785;SDS011;23625;48.784;9.336;2023-08-01T08:19:38;9.52;;;4.53;;
37785;SDS011;23625;48.784;9.336;2023-08-01T08:22:04;9.70;;;4.65;;
37785;SDS011;23625;48.784;9.336;2023-08-01T08:24:29;12.25;;;4.38;;
37785;SDS011;23625;48.784;9.336;2023-08-01T08:26:55;9.57;;;4.65;;
37785;SDS011;23625;48.784;9.336;2023-08-01T08:29:21;9.30;;;3.90;;
37785;SDS011;23625;48.784;9.336;2023-08-01T08:31:47;10.35;;;4.35;;
37785;SDS011;23625;48.784;9.336;2023-08-01T08:34:13;9.45;;;4.45;;
37785;SDS011;23625;48.784;9.336;2023-08-01T08:36:38;10.13;;;3.58;;
37785;SDS011;23625;48.784;9.336;2023-08-01T08:39:04;9.65;;;4.07;;
37785;SDS011;23625;48.784;9.336;2023-08-01T08:41:30;11.02;;;4.07;;
37785;SDS011;23625;48.784;9.336;2023-08-01T08:44:01;7.35;;;4.32;;
37785;SDS011;23625;48.784;9.336;2023-08-01T08:46:32;7.15;;;3.85;;
37785;SDS011;23625;48.784;9.336;2023-08-01T08:49:05;7.53;;;4.15;;
37785;SDS011;23625;48.784;9.336;2023-08-01T08:51:31;8.40;;;3.80;;
37785;SDS011;23625;48.784;9.336;2023-08-01T08:53:57;9.45;;;4.00;;
37785;SDS011;23625;48.784;9.336;2023-08-01T08:56:23;8.18;;;4.40;;
37785;SDS011;23625;48.784;9.336;2023-08-01T08:58:49;8.65;;;4.20;;
37785;SDS011;23625;48.784;9.336;2023-08-01T09:01:15;8.43;;;4.65;;
37785;SDS011;23625;48.784;9.336;2023-08-01T09:03:43;8.23;;;3.97;;
37785;SDS011;23625;48.784;9.336;2023-08-01T09:06:12;8.48;;;4.35;;
37785;SDS011;23625;48.784;9.336;2023-08-01T09:08:55;6.90;;;3.63;;
37785;SDS011;23625;48.784;9.336;2023-08-01T09:11:26;7.65;;;3.63;;
37785;SDS011;23625;48.784;9.336;2023-08-01T09:13:51;8.63;;;4.50;;
37785;SDS011;23625;48.784;9.336;2023-08-01T09:16:18;10.30;;;4.05;;
37785;SDS011;23625;48.784;9.336;2023-08-01T09:18:48;7.38;;;3.50;;
37785;SDS011;23625;48.784;9.336;2023-08-01T09:21:17;9.68;;;4.15;;
37785;SDS011;23625;48.784;9.336;2023-08-01T09:23:46;5.13;;;2.88;;
37785;SDS011;23625;48.784;9.336;2023-08-01T09:26:13;6.93;;;3.55;;
37785;SDS011;23625;48.784;9.336;2023-08-01T09:28:39;8.15;;;3.40;;
37785;SDS011;23625;48.784;9.336;2023-08-01T09:31:05;4.75;;;2.72;;
37785;SDS011;23625;48.784;9.336;2023-08-01T09:33:37;5.15;;;2.95;;
37785;SDS011;23625;48.784;9.336;2023-08-01T09:36:05;5.55;;;3.03;;
37785;SDS011;23625;48.784;9.336;2023-08-01T09:38:33;6.07;;;2.70;;
37785;SDS011;23625;48.784;9.336;2023-08-01T09:41:00;4.78;;;2.17;;
37785;SDS011;23625;48.784;9.336;2023-08-01T09:43:26;4.40;;;2.10;;
37785;SDS011;23625;48.784;9.336;2023-08-01T09:46:00;5.22;;;2.67;;
37785;SDS011;23625;48.784;9.336;2023-08-01T09:48:27;4.32;;;2.50;;
37785;SDS011;23625;48.784;9.336;2023-08-01T09:51:16;3.30;;;2.25;;
37785;SDS011;23625;48.784;9.336;2023-08-01T09:54:16;3.45;;;2.17;;
37785;SDS011;23625;48.784;9.336;2023-08-01T09:56:34;5.15;;;1.80;;
37785;SDS011;23625;48.784;9.336;2023-08-01T09:59:00;3.50;;;1.85;;
37785;SDS011;23625;48.784;9.336;2023-08-01T10:01:26;4.80;;;1.73;;
37785;SDS011;23625;48.784;9.336;2023-08-01T10:03:53;5.22;;;2.00;;
37785;SDS011;23625;48.784;9.336;2023-08-01T10:06:22;3.40;;;1.60;;
37785;SDS011;23625;48.784;9.336;2023-08-01T10:08:49;3.58;;;1.80;;
37785;SDS011;23625;48.784;9.336;2023-08-01T10:11:18;2.70;;;1.80;;
37785;SDS011;23625;48.784;9.336;2023-08-01T10:13:45;3.80;;;1.80;;
37785;SDS011;23625;48.784;9.336;2023-08-01T10:16:11;2.80;;;1.48;;
37785;SDS011;23625;48.784;9.336;2023-08-01T10:18:38;5.60;;;2.03;;
37785;SDS011;23625;48.784;9.336;2023-08-01T10:21:05;2.63;;;1.48;;
37785;SDS011;23625;48.784;9.336;2023-08-01T10:23:32;2.88;;;1.30;;
37785;SDS011;23625;48.784;9.336;2023-08-01T10:25:58;1.98;;;1.10;;
37785;SDS011;23625;48.784;9.336;2023-08-01T10:28:36;5.20;;;1.00;;
37785;SDS011;23625;48.784;9.336;2023-08-01T10:31:06;1.75;;;1.20;;
37785;SDS011;23625;48.784;9.336;2023-08-01T10:34:22;1.35;;;0.95;;
37785;SDS011;23625;48.784;9.336;2023-08-01T10:36:29;3.08;;;1.10;;
37785;SDS011;23625;48.784;9.336;2023-08-01T10:38:58;3.08;;;0.80;;
37785;SDS011;23625;48.784;9.336;2023-08-01T10:41:28;2.20;;;0.90;;
37785;SDS011;23625;48.784;9.336;2023-08-01T10:49:13;2.35;;;0.90;;
37785;SDS011;23625;48.784;9.336;2023-08-01T10:51:39;2.55;;;1.05;;
37785;SDS011;23625;48.784;9.336;2023-08-01T10:54:05;2.92;;;1.33;;
37785;SDS011;23625;48.784;9.336;2023-08-01T10:56:31;1.35;;;0.95;;
37785;SDS011;23625;48.784;9.336;2023-08-01T10:58:58;2.10;;;0.93;;
37785;SDS011;23625;48.784;9.336;2023-08-01T11:01:23;0.93;;;0.80;;
37785;SDS011;23625;48.784;9.336;2023-08-01T11:03:51;3.60;;;1.17;;
37785;SDS011;23625;48.784;9.336;2023-08-01T11:06:17;2.20;;;0.88;;
37785;SDS011;23625;48.784;9.336;2023-08-01T11:08:42;3.05;;;1.30;;
37785;SDS011;23625;48.784;9.336;2023-08-01T11:11:11;1.40;;;0.70;;
37785;SDS011;23625;48.784;9.336;2023-08-01T11:13:37;2.97;;;0.65;;
37785;SDS011;23625;48.784;9.336;2023-08-01T11:16:03;0.55;;;0.55;;
37785;SDS011;23625;48.784;9.336;2023-08-01T11:18:39;4.25;;;0.50;;
37785;SDS011;23625;48.784;9.336;2023-08-01T11:21:08;0.70;;;0.40;;
37785;SDS011;23625;48.784;9.336;2023-08-01T11:23:34;0.98;;;0.70;;
37785;SDS011;23625;48.784;9.336;2023-08-01T11:26:05;0.70;;;0.55;;
37785;SDS011;23625;48.784;9.336;2023-08-01T11:28:35;2.05;;;0.70;;
37785;SDS011;23625;48.784;9.336;2023-08-01T11:31:09;1.77;;;1.00;;
37785;SDS011;23625;48.784;9.336;2023-08-01T11:33:36;3.50;;;1.43;;
37785;SDS011;23625;48.784;9.336;2023-08-01T11:36:02;2.50;;;0.60;;
37785;SDS011;23625;48.784;9.336;2023-08-01T11:38:29;3.30;;;0.70;;
37785;SDS011;23625;48.784;9.336;2023-08-01T11:40:56;1.50;;;0.70;;
37785;SDS011;23625;48.784;9.336;2023-08-01T11:43:22;1.73;;;0.80;;
37785;SDS011;23625;48.784;9.336;2023-08-01T11:48:19;2.72;;;1.17;;
37785;SDS011;23625;48.784;9.336;2023-08-01T11:50:47;1.38;;;0.68;;
37785;SDS011;23625;48.784;9.336;2023-08-01T11:53:22;1.27;;;0.70;;
37785;SDS011;23625;48.784;9.336;2023-08-01T11:55:48;1.88;;;0.60;;
37785;SDS011;23625;48.784;9.336;2023-08-01T11:58:27;0.80;;;0.60;;
37785;SDS011;23625;48.784;9.336;2023-08-01T12:01:09;1.80;;;0.82;;
37785;SDS011;23625;48.784;9.336;2023-08-01T12:03:45;2.60;;;0.85;;
37785;SDS011;23625;48.784;9.336;2023-08-01T12:06:16;2.90;;;1.05;;
37785;SDS011;23625;48.784;9.336;2023-08-01T12:08:45;2.47;;;0.88;;
37785;SDS011;23625;48.784;9.336;2023-08-01T12:11:24;2.53;;;0.80;;
37785;SDS011;23625;48.784;9.336;2023-08-01T12:16:35;1.35;;;0.70;;
37785;SDS011;23625;48.784;9.336;2023-08-01T12:19:02;2.05;;;1.40;;
37785;SDS011;23625;48.784;9.336;2023-08-01T12:21:28;2.88;;;1.27;;
37785;SDS011;23625;48.784;9.336;2023-08-01T12:23:54;2.05;;;0.93;;
37785;SDS011;23625;48.784;9.336;2023-08-01T12:26:20;1.95;;;1.08;;
37785;SDS011;23625;48.784;9.336;2023-08-01T12:28:47;1.95;;;1.00;;
37785;SDS011;23625;48.784;9.336;2023-08-01T12:31:19;5.35;;;1.30;;
37785;SDS011;23625;48.784;9.336;2023-08-01T12:33:46;2.38;;;1.00;;
37785;SDS011;23625;48.784;9.336;2023-08-01T12:36:12;2.70;;;1.50;;
37785;SDS011;23625;48.784;9.336;2023-08-01T12:38:38;3.03;;;1.10;;
37785;SDS011;23625;48.784;9.336;2023-08-01T12:41:04;1.88;;;1.02;;
37785;SDS011;23625;48.784;9.336;2023-08-01T12:43:30;1.38;;;0.82;;
37785;SDS011;23625;48.784;9.336;2023-08-01T12:45:56;3.10;;;0.95;;
37785;SDS011;23625;48.784;9.336;2023-08-01T12:48:23;1.95;;;0.90;;
37785;SDS011;23625;48.784;9.336;2023-08-01T12:50:49;3.05;;;0.95;;
37785;SDS011;23625;48.784;9.336;2023-08-01T12:53:15;3.03;;;0.95;;
37785;SDS011;23625;48.784;9.336;2023-08-01T12:55:44;5.57;;;1.13;;
37785;SDS011;23625;48.784;9.336;2023-08-01T12:58:11;1.75;;;1.27;;
37785;SDS011;23625;48.784;9.336;2023-08-01T13:00:36;1.67;;;0.90;;
37785;SDS011;23625;48.784;9.336;2023-08-01T13:03:02;3.08;;;0.80;;
37785;SDS011;23625;48.784;9.336;2023-08-01T13:05:28;2.00;;;0.90;;
37785;SDS011;23625;48.784;9.336;2023-08-01T13:07:54;7.38;;;1.20;;
37785;SDS011;23625;48.784;9.336;2023-08-01T13:10:19;2.97;;;0.77;;
37785;SDS011;23625;48.784;9.336;2023-08-01T13:12:45;2.92;;;1.20;;
37785;SDS011;23625;48.784;9.336;2023-08-01T13:15:11;1.65;;;0.93;;
37785;SDS011;23625;48.784;9.336;2023-08-01T13:17:36;2.20;;;1.13;;
37785;SDS011;23625;48.784;9.336;2023-08-01T13:20:03;1.45;;;1.00;;
37785;SDS011;23625;48.784;9.336;2023-08-01T13:22:29;3.85;;;1.13;;
37785;SDS011;23625;48.784;9.336;2023-08-01T13:24:55;2.35;;;0.93;;
37785;SDS011;23625;48.784;9.336;2023-08-01T13:27:20;3.47;;;1.10;;
37785;SDS011;23625;48.784;9.336;2023-08-01T13:29:46;2.03;;;1.02;;
37785;SDS011;23625;48.784;9.336;2023-08-01T13:32:11;2.55;;;1.15;;
37785;SDS011;23625;48.784;9.336;2023-08-01T13:34:37;3.22;;;1.30;;
37785;SDS011;23625;48.784;9.336;2023-08-01T13:37:02;5.35;;;1.25;;
37785;SDS011;23625;48.784;9.336;2023-08-01T13:39:28;2.67;;;0.95;;
37785;SDS011;23625;48.784;9.336;2023-08-01T13:41:54;1.55;;;1.00;;
37785;SDS011;23625;48.784;9.336;2023-08-01T13:44:19;2.47;;;1.10;;
37785;SDS011;23625;48.784;9.336;2023-08-01T13:46:45;2.40;;;1.40;;
37785;SDS011;23625;48.784;9.336;2023-08-01T13:49:11;1.90;;;0.80;;
37785;SDS011;23625;48.784;9.336;2023-08-01T13:51:38;4.70;;;2.58;;
37785;SDS011;23625;48.784;9.336;2023-08-01T13:54:03;2.92;;;1.27;;
37785;SDS011;23625;48.784;9.336;2023-08-01T13:56:29;3.22;;;1.08;;
37785;SDS011;23625;48.784;9.336;2023-08-01T13:58:54;1.52;;;1.10;;
37785;SDS011;23625;48.784;9.336;2023-08-01T14:01:20;1.85;;;1.20;;
37785;SDS011;23625;48.784;9.336;2023-08-01T14:03:45;2.17;;;1.33;;
37785;SDS011;23625;48.784;9.336;2023-08-01T14:06:12;3.85;;;1.25;;
37785;SDS011;23625;48.784;9.336;2023-08-01T14:08:40;2.88;;;1.20;;
37785;SDS011;23625;48.784;9.336;2023-08-01T14:11:06;3.28;;;1.23;;
37785;SDS011;23625;48.784;9.336;2023-08-01T14:13:34;2.22;;;1.20;;
37785;SDS011;23625;48.784;9.336;2023-08-01T14:16:00;2.33;;;1.30;;
37785;SDS011;23625;48.784;9.336;2023-08-01T14:18:26;3.35;;;1.20;;
37785;SDS011;23625;48.784;9.336;2023-08-01T14:20:52;4.47;;;1.20;;
37785;SDS011;23625;48.784;9.336;2023-08-01T14:23:18;4.97;;;1.27;;
37785;SDS011;23625;48.784;9.336;2023-08-01T14:25:45;3.30;;;1.33;;
37785;SDS011;23625;48.784;9.336;2023-08-01T14:28:10;3.38;;;0.98;;
37785;SDS011;23625;48.784;9.336;2023-08-01T14:30:36;5.43;;;1.38;;
37785;SDS011;23625;48.784;9.336;2023-08-01T14:33:03;1.83;;;1.00;;
37785;SDS011;23625;48.784;9.336;2023-08-01T14:35:31;3.20;;;1.20;;
37785;SDS011;23625;48.784;9.336;2023-08-01T14:37:57;1.80;;;0.85;;
37785;SDS011;23625;48.784;9.336;2023-08-01T14:40:23;2.45;;;1.02;;
37785;SDS011;23625;48.784;9.336;2023-08-01T14:42:50;1.58;;;1.13;;
37785;SDS011;23625;48.784;9.336;2023-08-01T14:45:15;2.13;;;1.05;;
37785;SDS011;23625;48.784;9.336;2023-08-01T14:47:42;4.90;;;0.88;;
37785;SDS011;23625;48.784;9.336;2023-08-01T14:50:08;6.25;;;1.15;;
37785;SDS011;23625;48.784;9.336;2023-08-01T14:52:37;3.40;;;1.27;;